createdAt,value
2023-02-08T00:01:40.351Z,149.80
2023-02-08T00:04:09.115Z,150.30
2023-02-08T00:06:37.477Z,153.90
2023-02-08T00:09:07.435Z,152.30
2023-02-08T00:11:36.191Z,138.60
2023-02-08T00:14:04.555Z,145.70
2023-02-08T00:16:33.563Z,143.70
2023-02-08T00:19:01.883Z,138.30
2023-02-08T00:21:30.348Z,140.60
2023-02-08T00:23:58.683Z,128.60
2023-02-08T00:26:27.029Z,133.50
2023-02-08T00:28:55.491Z,128.90
2023-02-08T00:31:23.969Z,144.70
2023-02-08T00:33:52.305Z,149.10
2023-02-08T00:36:21.060Z,164.50
2023-02-08T00:38:49.394Z,165.00
2023-02-08T00:41:17.783Z,164.60
2023-02-08T00:43:49.514Z,150.70
2023-02-08T00:46:17.961Z,153.20
2023-02-08T00:48:46.385Z,147.50
2023-02-08T00:51:15.547Z,140.90
2023-02-08T00:53:45.980Z,145.80
2023-02-08T00:56:16.045Z,148.40
2023-02-08T00:58:44.558Z,138.80
2023-02-08T01:01:13.904Z,136.50
2023-02-08T01:03:45.694Z,134.00
2023-02-08T01:06:18.201Z,145.10
2023-02-08T01:08:47.004Z,138.20
2023-02-08T01:11:21.981Z,140.60
2023-02-08T01:13:51.239Z,141.80
2023-02-08T01:16:23.004Z,153.90
2023-02-08T01:18:53.415Z,145.00
2023-02-08T01:21:25.028Z,145.10
2023-02-08T01:23:54.103Z,142.30
2023-02-08T01:26:23.853Z,127.20
2023-02-08T01:28:54.147Z,127.60
2023-02-08T01:31:26.407Z,134.00
2023-02-08T01:33:56.596Z,135.90
2023-02-08T01:36:26.566Z,147.20
2023-02-08T01:38:55.537Z,149.70
2023-02-08T01:41:43.889Z,146.50
2023-02-08T01:44:12.171Z,132.20
2023-02-08T01:46:41.931Z,133.40
2023-02-08T01:49:29.106Z,136.90
2023-02-08T01:52:00.551Z,140.20
2023-02-08T01:54:37.321Z,151.90
2023-02-08T01:57:07.033Z,143.80
2023-02-08T01:59:54.977Z,136.90
2023-02-08T02:02:25.510Z,147.00
2023-02-08T02:04:55.898Z,139.60
2023-02-08T02:07:28.745Z,141.00
2023-02-08T02:10:06.008Z,143.90
2023-02-08T02:12:37.809Z,140.20
2023-02-08T02:15:07.728Z,148.20
2023-02-08T02:17:38.260Z,142.50
2023-02-08T02:20:24.336Z,139.40
2023-02-08T02:23:11.506Z,138.10
2023-02-08T02:25:51.925Z,134.50
2023-02-08T02:28:35.378Z,144.90
2023-02-08T02:31:39.691Z,140.60
2023-02-08T02:34:08.012Z,150.00
2023-02-08T02:36:49.219Z,142.80
2023-02-08T02:39:34.333Z,140.50
2023-02-08T02:43:07.479Z,124.90
2023-02-08T02:46:17.423Z,137.50
2023-02-08T02:48:53.193Z,139.30
2023-02-08T02:51:30.511Z,149.60
2023-02-08T02:54:21.131Z,147.20
2023-02-08T02:56:56.039Z,152.90
2023-02-08T02:59:26.499Z,141.20
2023-02-08T03:01:56.686Z,135.00
2023-02-08T03:04:34.562Z,145.90
2023-02-08T03:07:17.937Z,143.30
2023-02-08T03:10:08.028Z,149.90
2023-02-08T03:12:44.343Z,150.10
2023-02-08T03:15:29.160Z,153.20
2023-02-08T03:18:14.928Z,145.50
2023-02-08T03:21:00.848Z,136.00
2023-02-08T03:23:37.246Z,144.90
2023-02-08T03:26:28.752Z,138.80
2023-02-08T03:29:18.648Z,143.90
2023-02-08T03:32:17.272Z,148.60
2023-02-08T03:34:57.348Z,140.00
2023-02-08T03:37:51.973Z,147.90
2023-02-08T03:40:25.817Z,130.60
2023-02-08T03:42:58.690Z,132.20
2023-02-08T03:45:33.507Z,153.10
2023-02-08T03:48:06.956Z,143.10
2023-02-08T03:50:40.042Z,153.10
2023-02-08T03:53:10.753Z,149.20
2023-02-08T03:55:41.162Z,139.00
2023-02-08T03:58:46.923Z,152.00
2023-02-08T04:01:27.301Z,141.10
2023-02-08T04:03:57.501Z,148.60
2023-02-08T04:06:26.095Z,147.30
2023-02-08T04:08:54.340Z,155.20
2023-02-08T04:11:22.683Z,141.00
2023-02-08T04:13:51.032Z,131.20
2023-02-08T04:16:19.332Z,132.20
2023-02-08T04:18:47.638Z,140.80
2023-02-08T04:21:17.177Z,149.10
2023-02-08T04:23:45.484Z,143.80
2023-02-08T04:26:13.803Z,140.80
2023-02-08T04:28:42.277Z,139.90
2023-02-08T04:31:10.803Z,125.80
2023-02-08T04:33:39.193Z,125.50
2023-02-08T04:36:07.869Z,124.90
2023-02-08T04:38:36.227Z,132.90
2023-02-08T04:41:04.707Z,132.10
2023-02-08T04:43:33.093Z,136.90
2023-02-08T04:46:01.506Z,142.10
2023-02-08T04:48:30.150Z,129.10
2023-02-08T04:50:58.966Z,127.50
2023-02-08T04:53:27.488Z,122.00
2023-02-08T04:55:55.871Z,137.10
2023-02-08T04:58:24.372Z,130.30
2023-02-08T05:00:52.852Z,134.40
2023-02-08T05:03:21.258Z,130.70
2023-02-08T05:06:00.445Z,128.40
2023-02-08T05:08:29.297Z,126.60
2023-02-08T05:10:57.888Z,124.80
2023-02-08T05:13:26.181Z,141.90
2023-02-08T05:15:54.631Z,128.10
2023-02-08T05:18:23.223Z,134.30
2023-02-08T05:20:59.996Z,142.40
2023-02-08T05:23:28.666Z,148.90
2023-02-08T05:25:57.336Z,124.90
2023-02-08T05:28:26.130Z,139.40
2023-02-08T05:30:54.729Z,124.80
2023-02-08T05:33:23.666Z,134.80
2023-02-08T05:35:51.978Z,136.20
2023-02-08T05:38:20.379Z,149.90
2023-02-08T05:40:48.618Z,133.30
2023-02-08T05:43:17.649Z,134.50
2023-02-08T05:45:45.943Z,143.40
2023-02-08T05:48:14.401Z,153.20
2023-02-08T05:50:43.215Z,148.50
2023-02-08T05:53:11.700Z,168.20
2023-02-08T05:55:39.974Z,153.50
2023-02-08T05:58:08.340Z,158.70
2023-02-08T06:00:36.818Z,134.80
2023-02-08T06:03:05.191Z,135.40
2023-02-08T06:05:34.106Z,135.80
2023-02-08T06:08:02.609Z,145.00
2023-02-08T06:10:31.079Z,157.00
2023-02-08T06:12:59.736Z,137.00
2023-02-08T06:15:28.470Z,117.80
2023-02-08T06:17:57.304Z,113.80
2023-02-08T06:20:25.862Z,118.50
2023-02-08T06:22:56.546Z,130.50
2023-02-08T06:25:24.873Z,127.00
2023-02-08T06:27:54.307Z,126.00
2023-02-08T06:30:24.091Z,115.70
2023-02-08T06:32:52.828Z,95.30
2023-02-08T06:35:21.280Z,93.20
2023-02-08T06:37:49.900Z,86.30
2023-02-08T06:40:18.412Z,96.60
2023-02-08T06:42:48.079Z,87.60
2023-02-08T06:45:17.565Z,88.20
2023-02-08T06:47:45.899Z,77.10
2023-02-08T06:50:15.475Z,86.90
2023-02-08T06:52:44.758Z,74.50
2023-02-08T06:55:14.154Z,80.50
2023-02-08T06:57:42.567Z,79.20
2023-02-08T07:00:15.488Z,81.80
2023-02-08T07:02:43.957Z,77.40
2023-02-08T07:05:12.806Z,78.40
2023-02-08T07:07:42.571Z,69.50
2023-02-08T07:10:10.982Z,72.10
2023-02-08T07:12:39.514Z,73.30
2023-02-08T07:15:13.333Z,76.80
2023-02-08T07:17:41.719Z,70.90
2023-02-08T07:20:11.705Z,68.60
2023-02-08T07:22:40.588Z,69.80
2023-02-08T07:25:09.671Z,76.70
2023-02-08T07:27:38.284Z,74.20
2023-02-08T07:30:08.283Z,71.20
2023-02-08T07:32:36.695Z,80.60
2023-02-08T07:35:05.310Z,81.40
2023-02-08T07:37:33.954Z,72.70
2023-02-08T07:40:02.417Z,67.60
2023-02-08T07:42:30.751Z,70.20
2023-02-08T07:47:46.856Z,98.50
2023-02-08T07:50:16.660Z,114.80
2023-02-08T07:52:46.499Z,104.10
2023-02-08T07:55:18.864Z,100.40
2023-02-08T07:57:49.342Z,100.40
2023-02-08T08:00:19.113Z,100.40
2023-02-08T08:02:50.667Z,94.30
2023-02-08T08:05:19.286Z,83.30
2023-02-08T08:07:48.145Z,91.60
2023-02-08T08:10:16.538Z,81.40
2023-02-08T08:12:44.835Z,105.00
2023-02-08T08:15:13.295Z,71.90
2023-02-08T08:17:42.430Z,80.50
2023-02-08T08:20:11.826Z,92.00
2023-02-08T08:22:40.216Z,88.30
2023-02-08T08:25:08.756Z,78.10
2023-02-08T08:27:37.768Z,75.80
2023-02-08T08:30:08.463Z,73.70
2023-02-08T08:32:38.539Z,83.00
2023-02-08T08:35:08.496Z,73.40
2023-02-08T08:37:37.590Z,72.70
2023-02-08T08:40:07.894Z,69.90
2023-02-08T08:42:37.013Z,73.90
2023-02-08T08:45:06.486Z,62.90
2023-02-08T08:47:35.163Z,70.20
2023-02-08T08:50:03.908Z,79.70
2023-02-08T08:52:32.305Z,75.10
2023-02-08T08:55:00.646Z,75.20
2023-02-08T08:57:29.151Z,74.30
2023-02-08T08:59:57.621Z,72.10
2023-02-08T09:02:30.625Z,61.30
2023-02-08T09:05:00.899Z,70.40
2023-02-08T09:07:29.419Z,74.80
2023-02-08T09:09:57.845Z,65.50
2023-02-08T09:12:31.339Z,61.50
2023-02-08T09:14:59.715Z,66.10
2023-02-08T09:17:28.619Z,50.70
2023-02-08T09:19:57.195Z,40.20
2023-02-08T09:22:25.567Z,34.40
2023-02-08T09:24:54.213Z,33.80
2023-02-08T09:27:22.739Z,36.50
2023-02-08T09:29:51.150Z,36.10
2023-02-08T09:32:21.304Z,37.40
2023-02-08T09:34:49.867Z,39.00
2023-02-08T09:37:21.048Z,46.90
2023-02-08T09:39:49.578Z,48.70
2023-02-08T09:42:42.386Z,45.60
2023-02-08T09:45:22.846Z,44.30
2023-02-08T09:48:10.984Z,49.70
2023-02-08T09:50:48.830Z,45.20
2023-02-08T09:53:30.741Z,43.40
2023-02-08T09:56:02.072Z,35.80
2023-02-08T09:58:54.068Z,35.20
2023-02-08T10:01:30.060Z,32.70
2023-02-08T10:04:28.925Z,35.60
2023-02-08T10:06:57.465Z,28.30
2023-02-08T10:09:27.454Z,35.80
2023-02-08T10:12:19.852Z,25.60
2023-02-08T10:15:07.010Z,29.50
2023-02-08T10:18:06.515Z,39.40
2023-02-08T10:20:37.664Z,40.20
2023-02-08T10:23:17.248Z,29.80
2023-02-08T10:26:11.063Z,28.60
2023-02-08T10:28:42.491Z,25.10
2023-02-08T10:31:20.346Z,28.60
2023-02-08T10:33:55.219Z,28.50
2023-02-08T10:38:56.966Z,27.80
2023-02-08T10:41:32.243Z,24.50
2023-02-08T10:44:14.538Z,25.30
2023-02-08T10:47:20.685Z,24.00
2023-02-08T10:50:35.891Z,26.50
2023-02-08T10:53:07.898Z,22.70
2023-02-08T10:55:48.092Z,27.00
2023-02-08T10:58:20.203Z,30.40
2023-02-08T11:00:52.098Z,27.60
2023-02-08T11:03:27.269Z,27.10
2023-02-08T11:05:58.797Z,25.40
2023-02-08T11:08:29.034Z,118.60
2023-02-08T11:11:07.793Z,56.10
2023-02-08T11:13:39.786Z,63.40
2023-02-08T11:16:12.692Z,28.60
2023-02-08T11:18:49.188Z,30.10
2023-02-08T11:21:29.461Z,26.20
2023-02-08T11:23:58.530Z,25.70
2023-02-08T11:26:40.074Z,22.50
2023-02-08T11:29:17.608Z,29.40
2023-02-08T11:31:55.216Z,25.10
2023-02-08T11:34:28.459Z,25.60
2023-02-08T11:36:59.492Z,23.90
2023-02-08T11:39:54.459Z,24.00
2023-02-08T11:42:29.854Z,24.80
2023-02-08T11:44:59.963Z,18.90
2023-02-08T11:47:34.449Z,25.60
2023-02-08T11:50:06.775Z,25.10
2023-02-08T11:52:43.420Z,21.10
2023-02-08T11:55:17.715Z,17.30
2023-02-08T11:58:19.227Z,18.60
2023-02-08T12:01:21.697Z,12.90
2023-02-08T12:03:51.103Z,30.20
2023-02-08T12:06:28.729Z,17.40
2023-02-08T12:09:12.700Z,20.90
2023-02-08T12:11:47.462Z,19.50
2023-02-08T12:14:27.747Z,14.50
2023-02-08T12:17:23.303Z,18.20
2023-02-08T12:20:23.305Z,15.60
2023-02-08T12:23:03.504Z,17.40
2023-02-08T12:25:31.908Z,17.80
2023-02-08T12:28:42.528Z,23.10
2023-02-08T12:31:38.844Z,19.50
2023-02-08T12:34:36.775Z,17.40
2023-02-08T12:37:53.584Z,13.00
2023-02-08T12:40:51.112Z,12.40
2023-02-08T12:43:52.033Z,13.70
2023-02-08T12:46:23.481Z,13.60
2023-02-08T12:49:04.197Z,14.30
2023-02-08T12:51:57.140Z,12.20
2023-02-08T12:54:54.230Z,14.10
2023-02-08T12:57:27.251Z,13.70
2023-02-08T13:00:36.927Z,16.40
2023-02-08T13:03:11.467Z,13.10
2023-02-08T13:05:53.472Z,14.40
2023-02-08T13:08:50.556Z,22.70
2023-02-08T13:12:04.589Z,14.30
2023-02-08T13:14:57.492Z,16.90
2023-02-08T13:17:55.203Z,14.60
2023-02-08T13:20:43.914Z,16.50
2023-02-08T13:23:52.096Z,17.60
2023-02-08T13:26:33.308Z,19.20
2023-02-08T13:29:03.040Z,19.20
2023-02-08T13:31:54.043Z,16.60
2023-02-08T13:34:31.536Z,19.20
2023-02-08T13:37:08.840Z,20.40
2023-02-08T13:39:46.355Z,16.90
2023-02-08T13:42:20.799Z,19.10
2023-02-08T13:44:55.701Z,18.50
2023-02-08T13:47:26.883Z,21.10
2023-02-08T13:50:01.966Z,23.80
2023-02-08T13:52:46.498Z,19.30
2023-02-08T13:55:36.212Z,19.50
2023-02-08T13:58:06.075Z,22.40
2023-02-08T14:00:36.888Z,19.10
2023-02-08T14:03:08.638Z,20.80
2023-02-08T14:05:49.086Z,22.40
2023-02-08T14:09:06.516Z,20.00
2023-02-08T14:11:49.794Z,20.60
2023-02-08T14:14:26.505Z,25.10
2023-02-08T14:17:19.794Z,24.70
2023-02-08T14:19:59.123Z,23.90
2023-02-08T14:22:34.966Z,24.80
2023-02-08T14:25:18.030Z,30.00
2023-02-08T14:27:56.756Z,28.30
2023-02-08T14:30:31.397Z,28.30
2023-02-08T14:33:09.401Z,27.00
2023-02-08T14:35:42.791Z,27.80
2023-02-08T14:38:20.764Z,29.50
2023-02-08T14:40:58.062Z,27.20
2023-02-08T14:43:43.190Z,26.10
2023-02-08T14:46:40.354Z,30.00
2023-02-08T14:49:19.414Z,27.30
2023-02-08T14:52:07.686Z,29.00
2023-02-08T14:54:46.310Z,26.90
2023-02-08T14:57:28.139Z,25.80
2023-02-08T15:00:00.784Z,31.60
2023-02-08T15:02:31.592Z,34.60
2023-02-08T15:05:02.458Z,38.50
2023-02-08T15:07:54.377Z,41.40
2023-02-08T15:10:25.011Z,41.50
2023-02-08T15:13:06.720Z,41.20
2023-02-08T15:15:44.152Z,38.60
2023-02-08T15:18:20.551Z,34.40
2023-02-08T15:21:05.032Z,41.30
2023-02-08T15:23:33.645Z,40.10
2023-02-08T15:26:05.071Z,50.50
2023-02-08T15:28:37.045Z,47.90
2023-02-08T15:31:12.036Z,49.90
2023-02-08T15:33:43.613Z,38.20
2023-02-08T15:36:17.149Z,66.60
2023-02-08T15:38:45.968Z,70.90
2023-02-08T15:41:23.952Z,47.80
2023-02-08T15:44:16.096Z,47.60
2023-02-08T15:46:46.535Z,43.70
2023-02-08T15:49:18.336Z,42.60
2023-02-08T15:51:48.049Z,40.40
2023-02-08T15:54:20.032Z,49.90
2023-02-08T15:57:19.173Z,70.20
2023-02-08T15:59:48.881Z,63.00
2023-02-08T16:02:22.327Z,46.50
2023-02-08T16:04:51.411Z,43.50
2023-02-08T16:07:34.982Z,61.80
2023-02-08T16:10:06.311Z,54.40
2023-02-08T16:12:36.270Z,50.90
2023-02-08T16:15:04.989Z,52.70
2023-02-08T16:17:44.388Z,55.80
2023-02-08T16:20:35.964Z,59.90
2023-02-08T16:26:43.474Z,39.50
2023-02-08T16:29:24.100Z,40.20
2023-02-08T16:32:03.791Z,52.10
2023-02-08T16:34:36.219Z,44.20
2023-02-08T16:37:20.841Z,49.90
2023-02-08T16:39:54.043Z,42.10
2023-02-08T16:42:40.234Z,187.60
2023-02-08T16:45:09.874Z,61.20
2023-02-08T16:47:40.089Z,61.20
2023-02-08T16:50:14.763Z,67.80
2023-02-08T16:52:43.653Z,88.10
2023-02-08T16:55:21.360Z,83.50
2023-02-08T16:57:53.047Z,236.70
2023-02-08T17:00:23.425Z,171.00
2023-02-08T17:02:52.951Z,257.70
2023-02-08T17:05:27.217Z,239.70
2023-02-08T17:07:56.054Z,217.90
2023-02-08T17:10:36.925Z,219.50
2023-02-08T17:13:19.922Z,202.70
2023-02-08T17:15:54.756Z,178.10
2023-02-08T17:18:39.478Z,168.90
2023-02-08T17:21:10.322Z,218.10
2023-02-08T17:23:44.905Z,247.40
2023-02-08T17:26:27.584Z,196.80
2023-02-08T17:28:57.436Z,71.70
2023-02-08T17:31:29.338Z,157.70
2023-02-08T17:34:04.690Z,179.30
2023-02-08T17:39:05.547Z,258.30
2023-02-08T17:41:39.286Z,300.50
2023-02-08T17:44:08.402Z,293.30
2023-02-08T17:46:42.394Z,226.40
2023-02-08T17:49:11.355Z,231.90
2023-02-08T17:51:40.299Z,157.30
2023-02-08T17:54:17.152Z,84.80
2023-02-08T17:56:45.631Z,74.00
2023-02-08T17:59:14.105Z,78.10
2023-02-08T18:01:46.308Z,81.50
2023-02-08T18:04:21.465Z,82.70
2023-02-08T18:06:59.591Z,83.30
2023-02-08T18:09:28.417Z,99.10
2023-02-08T18:11:56.702Z,99.40
2023-02-08T18:14:25.000Z,107.60
2023-02-08T18:16:53.433Z,88.40
2023-02-08T18:19:22.412Z,88.90
2023-02-08T18:21:54.417Z,83.60
2023-02-08T18:24:22.984Z,86.20
2023-02-08T18:26:51.363Z,82.00
2023-02-08T18:29:20.150Z,88.20
2023-02-08T18:31:50.386Z,87.10
2023-02-08T18:34:27.640Z,82.40
2023-02-08T18:36:57.050Z,79.70
2023-02-08T18:39:25.685Z,74.30
2023-02-08T18:41:54.941Z,70.20
2023-02-08T18:44:23.597Z,62.70
2023-02-08T18:46:53.325Z,59.70
2023-02-08T18:49:22.480Z,70.90
2023-02-08T18:51:51.538Z,75.40
2023-02-08T18:54:23.160Z,111.50
2023-02-08T18:56:56.164Z,121.60
2023-02-08T18:59:24.554Z,85.30
2023-02-08T19:01:55.258Z,71.90
2023-02-08T19:04:26.295Z,76.40
2023-02-08T19:06:56.354Z,75.30
2023-02-08T19:09:24.710Z,71.30
2023-02-08T19:11:53.108Z,65.30
2023-02-08T19:14:21.987Z,67.70
2023-02-08T19:16:50.440Z,72.40
2023-02-08T19:19:18.887Z,67.80
2023-02-08T19:21:47.352Z,72.70
2023-02-08T19:24:15.745Z,72.30
2023-02-08T19:26:44.143Z,74.70
2023-02-08T19:29:16.156Z,78.80
2023-02-08T19:31:46.041Z,101.40
2023-02-08T19:34:14.712Z,100.40
2023-02-08T19:36:46.620Z,162.70
2023-02-08T19:39:24.300Z,159.60
2023-02-08T19:41:54.281Z,177.90
2023-02-08T19:44:25.171Z,138.80
2023-02-08T19:46:55.395Z,125.00
2023-02-08T19:49:27.324Z,150.50
2023-02-08T19:52:00.926Z,153.60
2023-02-08T19:54:29.495Z,186.80
2023-02-08T19:56:57.964Z,126.70
2023-02-08T19:59:28.560Z,90.20
2023-02-08T20:01:57.132Z,77.40
2023-02-08T20:04:29.718Z,86.20
2023-02-08T20:06:59.280Z,147.90
2023-02-08T20:09:28.074Z,119.50
2023-02-08T20:11:58.075Z,112.20
2023-02-08T20:14:31.294Z,133.20
2023-02-08T20:17:02.657Z,115.40
2023-02-08T20:19:39.859Z,87.10
2023-02-08T20:22:08.301Z,68.40
2023-02-08T20:24:40.564Z,77.90
2023-02-08T20:27:15.085Z,77.60
2023-02-08T20:29:46.691Z,87.10
2023-02-08T20:32:15.295Z,99.70
2023-02-08T20:34:54.131Z,117.40
2023-02-08T20:37:27.680Z,107.20
2023-02-08T20:39:58.046Z,100.80
2023-02-08T20:42:28.860Z,105.50
2023-02-08T20:44:57.838Z,97.10
2023-02-08T20:47:27.455Z,104.20
2023-02-08T20:49:57.705Z,93.10
2023-02-08T20:52:27.169Z,102.30
2023-02-08T20:54:55.597Z,96.50
2023-02-08T20:57:25.316Z,80.60
2023-02-08T20:59:53.811Z,87.80
2023-02-08T21:02:23.712Z,84.90
2023-02-08T21:04:54.917Z,82.20
2023-02-08T21:07:23.556Z,79.90
2023-02-08T21:09:51.921Z,76.70
2023-02-08T21:12:20.371Z,82.90
2023-02-08T21:14:49.765Z,80.40
2023-02-08T21:17:18.361Z,87.40
2023-02-08T21:19:50.780Z,96.40
2023-02-08T21:24:52.421Z,89.80
2023-02-08T21:27:20.952Z,97.90
2023-02-08T21:29:52.112Z,86.90
2023-02-08T21:32:20.524Z,99.40
2023-02-08T21:34:51.031Z,104.80
2023-02-08T21:37:19.391Z,91.80
2023-02-08T21:39:50.194Z,101.10
2023-02-08T21:42:18.685Z,117.50
2023-02-08T21:44:47.193Z,105.30
2023-02-08T21:47:15.547Z,97.80
2023-02-08T21:50:02.633Z,100.20
2023-02-08T21:52:50.096Z,105.90
2023-02-08T21:55:18.944Z,103.40
2023-02-08T21:57:47.196Z,109.50
2023-02-08T22:00:15.779Z,134.30
2023-02-08T22:02:44.329Z,125.00
2023-02-08T22:05:32.602Z,115.80
2023-02-08T22:08:01.220Z,104.10
2023-02-08T22:10:32.105Z,117.60
2023-02-08T22:13:00.998Z,101.40
2023-02-08T22:15:30.324Z,110.50
2023-02-08T22:18:01.594Z,110.90
2023-02-08T22:20:30.652Z,103.50
2023-02-08T22:22:59.001Z,104.40
2023-02-08T22:25:27.905Z,109.20
2023-02-08T22:27:56.419Z,120.50
2023-02-08T22:30:25.742Z,116.90
2023-02-08T22:32:57.352Z,99.30
2023-02-08T22:35:27.571Z,102.10
2023-02-08T22:37:56.153Z,91.90
2023-02-08T22:40:24.432Z,98.70
2023-02-08T22:42:53.951Z,94.30
2023-02-08T22:45:22.310Z,180.50
2023-02-08T22:47:50.603Z,205.00
2023-02-08T22:50:19.404Z,175.50
2023-02-08T22:52:47.773Z,185.10
2023-02-08T22:55:16.155Z,174.10
2023-02-08T22:57:44.566Z,166.20
2023-02-08T23:00:15.075Z,148.80
2023-02-08T23:02:44.253Z,151.80
2023-02-08T23:05:13.139Z,154.10
2023-02-08T23:07:41.424Z,143.50
2023-02-08T23:10:10.656Z,134.40
2023-02-08T23:12:39.668Z,142.40
2023-02-08T23:15:11.523Z,146.00
2023-02-08T23:17:39.916Z,161.80
2023-02-08T23:20:09.791Z,153.40
2023-02-08T23:22:38.222Z,140.20
2023-02-08T23:25:09.438Z,129.00
2023-02-08T23:27:38.993Z,136.40
2023-02-08T23:30:09.724Z,130.00
2023-02-08T23:32:40.248Z,144.00
2023-02-08T23:35:10.062Z,145.90
2023-02-08T23:37:38.511Z,165.40
2023-02-08T23:40:07.685Z,154.10
2023-02-08T23:42:37.063Z,141.50
2023-02-08T23:45:09.139Z,141.80
2023-02-08T23:47:39.398Z,143.70
2023-02-08T23:50:08.939Z,143.50
2023-02-08T23:52:37.716Z,136.70
2023-02-08T23:55:27.327Z,140.80
2023-02-08T23:58:08.365Z,131.50
